Time;durP1;ratioP1;P1;durP2;ratioP2;P2;SDS_P1;SDS_P2;PMS_P1;PMS_P2;Temp;Humidity;BMP_temperature;BMP_pressure;BME280_temperature;BME280_humidity;BME280_pressure;Samples;Min_cycle;Max_cycle;Signal;HPM_P1;HPM_P2
2024/02/13 00:00:59;;;;;;;4.20;3.40;;;;;;;;;;6156306;23;20080;-96
2024/02/13 00:03:25;;;;;;;4.53;3.38;;;;;;;;;;6156450;23;20005;-96
2024/02/13 00:05:52;;;;;;;5.28;3.13;;;;;;;;;;6156986;23;20447;-95
2024/02/13 00:08:18;;;;;;;17.20;3.50;;;;;;;;;;6156125;23;20002;-96
2024/02/13 00:10:44;;;;;;;5.25;3.70;;;;;;;;;;6156681;23;20359;-96
2024/02/13 00:13:10;;;;;;;5.78;3.75;;;;;;;;;;6156076;23;20013;-95
2024/02/13 00:15:38;;;;;;;4.50;3.45;;;;;;;;;;6156076;23;20072;-95
2024/02/13 00:18:07;;;;;;;5.47;3.90;;;;;;;;;;6156018;23;20009;-94
2024/02/13 00:20:33;;;;;;;5.97;4.38;;;;;;;;;;6156108;23;20002;-94
2024/02/13 00:23:03;;;;;;;6.35;4.88;;;;;;;;;;6157214;23;20005;-94
2024/02/13 00:25:29;;;;;;;5.65;3.92;;;;;;;;;;6155303;23;20022;-94
2024/02/13 00:27:56;;;;;;;5.30;3.85;;;;;;;;;;6155676;23;20029;-95
2024/02/13 00:30:23;;;;;;;5.82;4.07;;;;;;;;;;6155368;23;20036;-95
2024/02/13 00:32:49;;;;;;;5.72;4.30;;;;;;;;;;6155131;23;20128;-95
2024/02/13 00:35:15;;;;;;;5.93;4.63;;;;;;;;;;6155897;23;20036;-94
2024/02/13 00:37:42;;;;;;;4.88;3.70;;;;;;;;;;6155416;23;20005;-95
2024/02/13 00:40:11;;;;;;;5.80;4.63;;;;;;;;;;6156194;23;20005;-96
2024/02/13 00:42:37;;;;;;;6.00;3.58;;;;;;;;;;6156548;23;20013;-95
2024/02/13 00:45:07;;;;;;;5.93;4.05;;;;;;;;;;6155081;23;20492;-95
2024/02/13 00:47:36;;;;;;;5.45;4.40;;;;;;;;;;6155557;23;20023;-95
2024/02/13 00:50:03;;;;;;;5.30;3.47;;;;;;;;;;6155460;23;20001;-95
2024/02/13 00:52:29;;;;;;;6.35;4.28;;;;;;;;;;6155838;23;20013;-94
2024/02/13 00:54:56;;;;;;;6.10;4.00;;;;;;;;;;6155399;23;20063;-95
2024/02/13 00:57:22;;;;;;;6.28;4.60;;;;;;;;;;6155466;23;20008;-94
2024/02/13 00:59:48;;;;;;;6.25;4.63;;;;;;;;;;6155263;23;20010;-94
2024/02/13 01:02:17;;;;;;;6.80;4.50;;;;;;;;;;6155733;23;20101;-93
2024/02/13 01:04:44;;;;;;;6.22;4.10;;;;;;;;;;6155911;23;20013;-95
2024/02/13 01:07:10;;;;;;;6.15;4.60;;;;;;;;;;6155384;23;20001;-96
2024/02/13 01:09:36;;;;;;;5.47;4.18;;;;;;;;;;6155518;23;20009;-95
2024/02/13 01:12:05;;;;;;;5.55;4.28;;;;;;;;;;6155365;23;20018;-95
2024/02/13 01:14:31;;;;;;;6.85;5.30;;;;;;;;;;6155976;23;20021;-96
2024/02/13 01:16:58;;;;;;;7.43;5.45;;;;;;;;;;6155815;23;20016;-95
2024/02/13 01:19:24;;;;;;;6.10;4.47;;;;;;;;;;6155576;23;20006;-94
2024/02/13 01:21:50;;;;;;;5.63;4.55;;;;;;;;;;6155438;23;20010;-96
2024/02/13 01:24:16;;;;;;;6.72;4.55;;;;;;;;;;6156066;23;20015;-95
2024/02/13 01:26:44;;;;;;;6.60;4.63;;;;;;;;;;6160585;23;20028;-95
2024/02/13 01:29:11;;;;;;;5.00;4.25;;;;;;;;;;6161397;23;20005;-96
2024/02/13 01:31:38;;;;;;;6.25;4.22;;;;;;;;;;6161106;23;20020;-95
2024/02/13 01:34:04;;;;;;;7.20;5.47;;;;;;;;;;6163151;23;20032;-93
2024/02/13 01:36:30;;;;;;;5.05;3.80;;;;;;;;;;6189749;23;19993;-90
2024/02/13 01:38:59;;;;;;;6.97;4.30;;;;;;;;;;6182658;23;20394;-93
2024/02/13 01:41:26;;;;;;;5.93;4.10;;;;;;;;;;6162334;23;20005;-94
2024/02/13 01:43:52;;;;;;;5.50;3.88;;;;;;;;;;6162176;23;20009;-94
2024/02/13 01:46:20;;;;;;;6.93;4.28;;;;;;;;;;6162554;23;20001;-94
2024/02/13 01:48:47;;;;;;;6.53;4.25;;;;;;;;;;6162106;23;20017;-94
2024/02/13 01:51:14;;;;;;;8.00;4.63;;;;;;;;;;6161801;23;20008;-94
2024/02/13 01:53:40;;;;;;;6.13;3.83;;;;;;;;;;6162112;23;20013;-94
2024/02/13 01:56:08;;;;;;;7.95;4.60;;;;;;;;;;6161774;23;20092;-94
2024/02/13 01:58:36;;;;;;;5.32;3.90;;;;;;;;;;6161926;23;20061;-94
2024/02/13 02:01:04;;;;;;;5.57;3.83;;;;;;;;;;6162001;23;20088;-95
2024/02/13 02:03:34;;;;;;;5.30;4.22;;;;;;;;;;6162106;23;20016;-95
2024/02/13 02:06:01;;;;;;;6.60;4.30;;;;;;;;;;6161721;23;20012;-94
2024/02/13 02:08:27;;;;;;;6.40;4.50;;;;;;;;;;6161960;23;20009;-93
2024/02/13 02:10:57;;;;;;;6.93;3.80;;;;;;;;;;6161863;23;20012;-94
2024/02/13 02:13:24;;;;;;;5.20;4.03;;;;;;;;;;6161844;23;20013;-94
2024/02/13 02:15:51;;;;;;;7.70;4.45;;;;;;;;;;6162016;23;20084;-95
2024/02/13 02:18:17;;;;;;;6.43;4.72;;;;;;;;;;6162099;23;20008;-95
2024/02/13 02:20:44;;;;;;;6.65;4.90;;;;;;;;;;6161709;23;20001;-94
2024/02/13 02:23:10;;;;;;;6.32;4.35;;;;;;;;;;6161719;23;20001;-93
2024/02/13 02:25:36;;;;;;;6.47;4.38;;;;;;;;;;6161083;23;20017;-94
2024/02/13 02:28:03;;;;;;;6.57;4.07;;;;;;;;;;6161630;23;20008;-91
2024/02/13 02:30:29;;;;;;;6.90;4.97;;;;;;;;;;6161850;23;20005;-91
2024/02/13 02:32:55;;;;;;;6.57;4.30;;;;;;;;;;6161855;23;20012;-92
2024/02/13 02:35:21;;;;;;;6.60;4.40;;;;;;;;;;6161421;23;20102;-94
2024/02/13 02:37:50;;;;;;;7.57;4.45;;;;;;;;;;6161345;23;20064;-94
2024/02/13 02:40:18;;;;;;;6.20;4.68;;;;;;;;;;6161904;23;20489;-95
2024/02/13 02:42:58;;;;;;;6.43;4.40;;;;;;;;;;6161870;23;20331;-95
2024/02/13 02:45:24;;;;;;;6.78;4.82;;;;;;;;;;6161654;23;20005;-95
2024/02/13 02:47:50;;;;;;;5.75;4.18;;;;;;;;;;6161830;23;20084;-95
2024/02/13 02:50:16;;;;;;;7.78;4.93;;;;;;;;;;6161988;23;20005;-96
2024/02/13 02:52:43;;;;;;;6.72;4.30;;;;;;;;;;6162049;23;20021;-95
2024/02/13 02:55:09;;;;;;;7.90;4.70;;;;;;;;;;6161910;23;20001;-95
2024/02/13 02:57:35;;;;;;;7.63;5.13;;;;;;;;;;6161647;23;20012;-96
2024/02/13 03:00:07;;;;;;;8.75;5.13;;;;;;;;;;6161576;23;20105;-96
2024/02/13 03:02:35;;;;;;;6.78;4.45;;;;;;;;;;6161936;23;20015;-96
2024/02/13 03:05:03;;;;;;;7.80;5.10;;;;;;;;;;6161393;23;20005;-95
2024/02/13 03:07:30;;;;;;;6.68;5.10;;;;;;;;;;6161486;23;20032;-95
2024/02/13 03:09:56;;;;;;;6.95;5.30;;;;;;;;;;6162312;23;20005;-96
2024/02/13 03:12:22;;;;;;;8.32;5.30;;;;;;;;;;6161881;23;20063;-95
2024/02/13 03:14:50;;;;;;;6.78;5.00;;;;;;;;;;6161915;23;20001;-95
2024/02/13 03:17:17;;;;;;;7.32;5.07;;;;;;;;;;6171926;23;19997;-95
2024/02/13 03:19:43;;;;;;;8.77;5.28;;;;;;;;;;6188970;23;20004;-94
2024/02/13 03:22:10;;;;;;;8.57;5.63;;;;;;;;;;6175120;23;20039;-94
2024/02/13 03:24:37;;;;;;;9.95;5.38;;;;;;;;;;6160972;23;20005;-94
2024/02/13 03:27:04;;;;;;;7.03;5.55;;;;;;;;;;6161314;23;20013;-94
2024/02/13 03:29:31;;;;;;;7.32;5.30;;;;;;;;;;6161037;23;20005;-95
2024/02/13 03:31:57;;;;;;;9.07;5.35;;;;;;;;;;6160948;23;20017;-95
2024/02/13 03:34:23;;;;;;;8.63;5.10;;;;;;;;;;6161176;23;20002;-95
2024/02/13 03:36:50;;;;;;;10.75;5.82;;;;;;;;;;6161215;23;20009;-95
2024/02/13 03:39:16;;;;;;;9.02;6.05;;;;;;;;;;6160936;23;20001;-94
2024/02/13 03:41:43;;;;;;;8.48;5.30;;;;;;;;;;6161261;23;20012;-94
2024/02/13 03:44:13;;;;;;;8.85;6.10;;;;;;;;;;6160987;23;20020;-95
2024/02/13 03:46:39;;;;;;;9.93;5.75;;;;;;;;;;6187190;23;20001;-95
2024/02/13 03:49:08;;;;;;;9.43;6.40;;;;;;;;;;6161085;23;20064;-95
2024/02/13 03:51:35;;;;;;;8.10;5.47;;;;;;;;;;6160988;23;20013;-95
2024/02/13 03:54:02;;;;;;;7.90;5.72;;;;;;;;;;6160721;23;20009;-95
2024/02/13 03:56:28;;;;;;;10.88;6.25;;;;;;;;;;6160624;23;20005;-95
2024/02/13 03:58:54;;;;;;;8.73;5.82;;;;;;;;;;6161040;23;20021;-95
2024/02/13 04:01:20;;;;;;;10.02;6.28;;;;;;;;;;6160993;23;20053;-96
2024/02/13 04:03:46;;;;;;;9.68;6.80;;;;;;;;;;6161000;23;20083;-96
2024/02/13 04:06:12;;;;;;;8.93;6.35;;;;;;;;;;6160868;23;20437;-95
2024/02/13 04:08:44;;;;;;;9.43;6.53;;;;;;;;;;6160832;23;20001;-94
2024/02/13 04:11:10;;;;;;;10.63;6.55;;;;;;;;;;6160473;23;20001;-93
2024/02/13 04:13:37;;;;;;;8.32;6.05;;;;;;;;;;6160250;23;20013;-95
2024/02/13 04:16:03;;;;;;;10.32;6.45;;;;;;;;;;6160351;23;20009;-95
2024/02/13 04:18:29;;;;;;;11.80;6.75;;;;;;;;;;6160796;23;20747;-94
2024/02/13 04:20:55;;;;;;;8.27;6.00;;;;;;;;;;6160304;23;20001;-94
2024/02/13 04:23:21;;;;;;;9.48;5.60;;;;;;;;;;6160526;23;20005;-96
2024/02/13 04:25:47;;;;;;;9.57;6.18;;;;;;;;;;6161185;23;20032;-95
2024/02/13 04:28:13;;;;;;;11.70;7.95;;;;;;;;;;6160891;23;19998;-95
2024/02/13 04:30:41;;;;;;;9.68;5.82;;;;;;;;;;6161031;23;20006;-96
2024/02/13 04:33:12;;;;;;;10.23;6.90;;;;;;;;;;6160540;23;20095;-96
2024/02/13 04:35:38;;;;;;;10.10;6.30;;;;;;;;;;6160664;23;20005;-95
2024/02/13 04:38:05;;;;;;;10.85;7.50;;;;;;;;;;6161020;23;20004;-94
2024/02/13 04:40:33;;;;;;;10.18;7.15;;;;;;;;;;6160964;23;20009;-95
2024/02/13 04:43:00;;;;;;;11.35;7.72;;;;;;;;;;6160525;23;20378;-94
2024/02/13 04:45:26;;;;;;;10.45;6.63;;;;;;;;;;6160801;23;20016;-95
2024/02/13 04:47:53;;;;;;;9.48;7.32;;;;;;;;;;6160863;23;20037;-95
2024/02/13 04:50:19;;;;;;;8.13;6.45;;;;;;;;;;6160752;23;20001;-95
2024/02/13 04:52:45;;;;;;;8.35;6.00;;;;;;;;;;6161340;23;20033;-95
2024/02/13 04:55:12;;;;;;;11.05;7.07;;;;;;;;;;6160986;23;20001;-95
2024/02/13 04:57:38;;;;;;;13.15;8.73;;;;;;;;;;6187675;23;20426;-96
2024/02/13 05:00:16;;;;;;;11.00;7.60;;;;;;;;;;6176540;23;19990;-95
2024/02/13 05:02:46;;;;;;;14.18;7.70;;;;;;;;;;6188154;23;20017;-94
2024/02/13 05:07:58;;;;;;;10.20;7.07;;;;;;;;;;6187147;23;20043;-96
2024/02/13 05:10:25;;;;;;;11.88;7.72;;;;;;;;;;6162428;23;19998;-96
2024/02/13 05:12:53;;;;;;;12.75;8.85;;;;;;;;;;6162824;23;20382;-95
2024/02/13 05:15:21;;;;;;;11.35;7.70;;;;;;;;;;6162359;23;20012;-96
2024/02/13 05:17:48;;;;;;;10.27;7.55;;;;;;;;;;6163186;23;20442;-95
2024/02/13 05:20:14;;;;;;;12.73;8.52;;;;;;;;;;6162487;23;20033;-95
2024/02/13 05:22:42;;;;;;;14.40;7.88;;;;;;;;;;6162714;23;20016;-96
2024/02/13 05:25:09;;;;;;;16.45;8.70;;;;;;;;;;6162158;23;20012;-96
2024/02/13 05:27:35;;;;;;;11.75;9.05;;;;;;;;;;6162090;23;20012;-94
2024/02/13 05:30:01;;;;;;;12.57;8.20;;;;;;;;;;6162098;23;20056;-94
2024/02/13 05:32:28;;;;;;;12.20;7.97;;;;;;;;;;6162417;23;20075;-96
2024/02/13 05:34:56;;;;;;;14.18;9.02;;;;;;;;;;6162786;23;20033;-96
2024/02/13 05:37:22;;;;;;;13.38;8.60;;;;;;;;;;6162473;23;20005;-96
2024/02/13 05:39:51;;;;;;;10.13;7.35;;;;;;;;;;6162440;23;20338;-96
2024/02/13 05:42:22;;;;;;;11.68;8.00;;;;;;;;;;6162218;23;20016;-96
2024/02/13 05:44:49;;;;;;;10.52;8.13;;;;;;;;;;6162855;23;20001;-95
2024/02/13 05:47:15;;;;;;;9.77;7.35;;;;;;;;;;6162215;23;20005;-96
2024/02/13 05:49:44;;;;;;;11.23;8.18;;;;;;;;;;6163156;23;20001;-92
2024/02/13 05:52:10;;;;;;;9.10;6.30;;;;;;;;;;6161741;23;20020;-91
2024/02/13 05:54:36;;;;;;;11.65;7.38;;;;;;;;;;6161884;23;20005;-90
2024/02/13 05:57:03;;;;;;;11.35;7.65;;;;;;;;;;6161812;23;20056;-92
2024/02/13 05:59:31;;;;;;;10.10;7.55;;;;;;;;;;6162309;23;20004;-90
2024/02/13 06:02:01;;;;;;;10.27;7.55;;;;;;;;;;6161874;23;20017;-91
2024/02/13 06:04:28;;;;;;;8.50;6.53;;;;;;;;;;6161998;23;20397;-92
2024/02/13 06:06:55;;;;;;;11.85;8.57;;;;;;;;;;6161804;23;20505;-91
2024/02/13 06:09:24;;;;;;;10.05;6.90;;;;;;;;;;6161894;23;20005;-92
2024/02/13 06:11:50;;;;;;;12.40;7.78;;;;;;;;;;6161879;23;20095;-90
2024/02/13 06:14:16;;;;;;;8.68;6.65;;;;;;;;;;6162051;23;20545;-90
2024/02/13 06:16:43;;;;;;;10.30;8.10;;;;;;;;;;6162122;23;20016;-91
2024/02/13 06:19:10;;;;;;;9.13;6.90;;;;;;;;;;6162203;23;20012;-91
2024/02/13 06:21:37;;;;;;;10.68;7.53;;;;;;;;;;6161952;23;20013;-90
2024/02/13 06:24:03;;;;;;;11.77;7.38;;;;;;;;;;6161441;23;20008;-92
2024/02/13 06:26:29;;;;;;;11.65;7.15;;;;;;;;;;6161212;23;20455;-91
2024/02/13 06:28:56;;;;;;;9.70;5.95;;;;;;;;;;6161743;23;20009;-90
2024/02/13 06:31:22;;;;;;;9.80;6.65;;;;;;;;;;6161856;23;20461;-92
2024/02/13 06:33:48;;;;;;;13.95;7.20;;;;;;;;;;6162065;23;20005;-91
2024/02/13 06:36:17;;;;;;;10.77;7.03;;;;;;;;;;6162936;23;20005;-90
2024/02/13 06:38:44;;;;;;;9.70;7.28;;;;;;;;;;6161897;23;20009;-91
2024/02/13 06:41:10;;;;;;;10.45;6.00;;;;;;;;;;6162006;23;20005;-92
2024/02/13 06:43:36;;;;;;;9.23;5.97;;;;;;;;;;6182685;23;19993;-89
2024/02/13 06:46:03;;;;;;;9.85;5.90;;;;;;;;;;6189287;23;20069;-92
2024/02/13 06:48:30;;;;;;;13.23;5.80;;;;;;;;;;6167325;23;20326;-91
2024/02/13 06:50:56;;;;;;;8.85;7.30;;;;;;;;;;6161849;23;20008;-91
2024/02/13 06:53:22;;;;;;;10.23;9.23;;;;;;;;;;6162617;23;20013;-92
2024/02/13 06:55:49;;;;;;;14.32;13.13;;;;;;;;;;6163021;23;20001;-92
2024/02/13 06:58:17;;;;;;;7.53;6.45;;;;;;;;;;6162263;23;20005;-92
2024/02/13 07:00:43;;;;;;;7.97;7.15;;;;;;;;;;6162332;23;20005;-90
2024/02/13 07:03:09;;;;;;;14.20;12.90;;;;;;;;;;6161964;23;20418;-91
2024/02/13 07:05:37;;;;;;;18.67;17.17;;;;;;;;;;6161681;23;20007;-91
2024/02/13 07:08:03;;;;;;;40.47;37.85;;;;;;;;;;6161153;23;20009;-90
2024/02/13 07:10:29;;;;;;;18.15;16.70;;;;;;;;;;6161198;23;20005;-91
2024/02/13 07:12:58;;;;;;;18.20;16.58;;;;;;;;;;6161760;23;20013;-90
2024/02/13 07:15:24;;;;;;;15.00;13.48;;;;;;;;;;6161211;23;20004;-90
2024/02/13 07:17:51;;;;;;;16.42;14.80;;;;;;;;;;6162430;23;20063;-91
2024/02/13 07:20:17;;;;;;;9.45;7.90;;;;;;;;;;6170947;23;20024;-90
2024/02/13 07:22:44;;;;;;;14.57;13.10;;;;;;;;;;6166346;23;20009;-90
2024/02/13 07:25:11;;;;;;;23.13;21.23;;;;;;;;;;6166679;23;20028;-90
2024/02/13 07:27:37;;;;;;;10.30;9.15;;;;;;;;;;6165532;23;20020;-90
2024/02/13 07:30:10;;;;;;;15.43;13.90;;;;;;;;;;6190198;23;20005;-90
2024/02/13 07:32:39;;;;;;;12.43;11.23;;;;;;;;;;6167887;23;20013;-91
2024/02/13 07:35:06;;;;;;;10.75;8.60;;;;;;;;;;6165235;23;20060;-91
2024/02/13 07:37:34;;;;;;;11.50;9.23;;;;;;;;;;6190830;23;20451;-89
2024/02/13 07:40:00;;;;;;;13.70;12.30;;;;;;;;;;6161206;23;20427;-89
2024/02/13 07:42:28;;;;;;;12.27;9.48;;;;;;;;;;6160921;23;20012;-91
2024/02/13 07:44:58;;;;;;;11.80;9.80;;;;;;;;;;6161421;23;20012;-90
2024/02/13 07:47:27;;;;;;;14.40;10.40;;;;;;;;;;6160777;23;20005;-92
2024/02/13 07:49:59;;;;;;;12.95;9.25;;;;;;;;;;6161215;23;20080;-92
2024/02/13 07:52:25;;;;;;;11.75;9.30;;;;;;;;;;6161145;23;20037;-94
2024/02/13 07:54:51;;;;;;;13.30;8.27;;;;;;;;;;6160745;23;20025;-93
2024/02/13 07:57:17;;;;;;;12.32;9.43;;;;;;;;;;6160611;23;20001;-93
2024/02/13 07:59:44;;;;;;;15.40;10.32;;;;;;;;;;6160598;23;20005;-93
2024/02/13 08:02:10;;;;;;;14.18;9.65;;;;;;;;;;6161110;23;20009;-95
2024/02/13 08:04:37;;;;;;;16.77;15.38;;;;;;;;;;6161464;23;20028;-94
2024/02/13 08:07:03;;;;;;;13.60;12.20;;;;;;;;;;6161275;23;20411;-92
2024/02/13 08:09:29;;;;;;;15.20;13.80;;;;;;;;;;6162779;23;20052;-92
2024/02/13 08:11:55;;;;;;;12.00;10.77;;;;;;;;;;6161754;23;20016;-92
2024/02/13 08:14:22;;;;;;;11.32;9.73;;;;;;;;;;6161816;23;20005;-93
2024/02/13 08:16:49;;;;;;;12.23;10.43;;;;;;;;;;6162981;23;20489;-91
2024/02/13 08:19:15;;;;;;;18.45;16.85;;;;;;;;;;6164498;23;20009;-95
2024/02/13 08:21:43;;;;;;;13.73;12.30;;;;;;;;;;6192681;23;20001;-94
2024/02/13 08:24:09;;;;;;;26.77;24.55;;;;;;;;;;6164421;23;20016;-88
2024/02/13 08:26:36;;;;;;;25.50;23.10;;;;;;;;;;6187746;23;20012;-93
2024/02/13 08:29:03;;;;;;;18.25;16.50;;;;;;;;;;6185116;23;20017;-94
2024/02/13 08:31:30;;;;;;;14.05;12.55;;;;;;;;;;6161026;23;20005;-92
2024/02/13 08:33:56;;;;;;;16.17;14.02;;;;;;;;;;6136406;23;20009;-93
2024/02/13 08:36:24;;;;;;;17.35;15.77;;;;;;;;;;6160951;23;20067;-94
2024/02/13 08:38:51;;;;;;;33.63;31.13;;;;;;;;;;6186965;23;20005;-94
2024/02/13 08:41:18;;;;;;;21.42;19.58;;;;;;;;;;6160380;23;20009;-94
2024/02/13 08:43:45;;;;;;;33.10;30.55;;;;;;;;;;6161227;23;20060;-93
2024/02/13 08:46:13;;;;;;;22.10;20.13;;;;;;;;;;6161031;23;20005;-90
2024/02/13 08:48:39;;;;;;;17.27;15.73;;;;;;;;;;6160683;23;20005;-91
2024/02/13 08:51:05;;;;;;;29.92;27.55;;;;;;;;;;6159707;23;20001;-92
2024/02/13 08:53:33;;;;;;;11.52;10.13;;;;;;;;;;6160807;23;20046;-93
2024/02/13 08:55:59;;;;;;;55.47;51.53;;;;;;;;;;6160857;23;20009;-94
2024/02/13 08:58:26;;;;;;;25.45;23.27;;;;;;;;;;6160998;23;20005;-96
2024/02/13 09:00:52;;;;;;;17.08;15.52;;;;;;;;;;6161049;23;20426;-95
2024/02/13 09:03:18;;;;;;;23.13;21.45;;;;;;;;;;6160174;23;20009;-92
2024/02/13 09:05:44;;;;;;;8.75;7.07;;;;;;;;;;6161085;23;20005;-93
2024/02/13 09:08:10;;;;;;;12.30;11.25;;;;;;;;;;6160781;23;20005;-93
2024/02/13 09:10:36;;;;;;;11.23;9.65;;;;;;;;;;6160691;23;20001;-90
2024/02/13 09:13:02;;;;;;;11.00;10.00;;;;;;;;;;6160576;23;20020;-93
2024/02/13 09:15:29;;;;;;;9.52;8.13;;;;;;;;;;6160852;23;20005;-94
2024/02/13 09:17:56;;;;;;;9.48;6.72;;;;;;;;;;6160540;23;20013;-92
2024/02/13 09:20:22;;;;;;;11.73;10.70;;;;;;;;;;6161467;23;20005;-93
2024/02/13 09:22:49;;;;;;;8.45;7.22;;;;;;;;;;6161096;23;20001;-92
2024/02/13 09:25:21;;;;;;;7.18;6.47;;;;;;;;;;6160272;23;20025;-92
2024/02/13 09:27:48;;;;;;;6.38;5.78;;;;;;;;;;6159608;23;20008;-92
2024/02/13 09:30:15;;;;;;;7.57;6.78;;;;;;;;;;6160618;23;20009;-90
2024/02/13 09:32:41;;;;;;;7.28;6.57;;;;;;;;;;6161468;23;20073;-93
2024/02/13 09:35:08;;;;;;;7.15;6.03;;;;;;;;;;6162208;23;20016;-90
2024/02/13 09:37:42;;;;;;;6.20;5.30;;;;;;;;;;6160339;23;20009;-92
2024/02/13 09:40:15;;;;;;;6.70;6.05;;;;;;;;;;6160538;23;20085;-92
2024/02/13 09:42:41;;;;;;;7.28;6.50;;;;;;;;;;6163138;23;19996;-92
2024/02/13 09:45:08;;;;;;;7.03;6.32;;;;;;;;;;6161653;23;20148;-90
2024/02/13 09:47:37;;;;;;;7.70;5.60;;;;;;;;;;6160273;23;20091;-93
2024/02/13 09:50:05;;;;;;;6.40;5.40;;;;;;;;;;6160733;23;20008;-93
2024/02/13 09:52:33;;;;;;;5.57;5.00;;;;;;;;;;6161350;23;20017;-92
2024/02/13 09:55:00;;;;;;;6.15;4.63;;;;;;;;;;6187579;23;20008;-91
2024/02/13 09:57:26;;;;;;;6.97;6.38;;;;;;;;;;6162187;23;20036;-91
2024/02/13 09:59:56;;;;;;;5.10;4.60;;;;;;;;;;6163179;23;20001;-93
2024/02/13 10:02:27;;;;;;;6.38;5.68;;;;;;;;;;6163898;23;20453;-92
2024/02/13 10:04:54;;;;;;;7.47;5.82;;;;;;;;;;6164005;23;20048;-92
2024/02/13 10:07:22;;;;;;;6.40;5.63;;;;;;;;;;6190036;23;20001;-93
2024/02/13 10:09:49;;;;;;;6.10;5.50;;;;;;;;;;6185042;23;19989;-92
2024/02/13 10:12:15;;;;;;;6.97;6.05;;;;;;;;;;6215132;23;19997;-91
2024/02/13 10:14:41;;;;;;;7.32;6.53;;;;;;;;;;6165490;23;20044;-93
2024/02/13 10:17:11;;;;;;;6.00;5.40;;;;;;;;;;6162087;23;20434;-92
2024/02/13 10:19:38;;;;;;;6.78;6.18;;;;;;;;;;6161858;23;20009;-94
2024/02/13 10:22:11;;;;;;;8.00;7.03;;;;;;;;;;6162490;23;20044;-94
2024/02/13 10:24:37;;;;;;;8.85;7.72;;;;;;;;;;6162221;23;20100;-95
2024/02/13 10:27:06;;;;;;;8.45;7.65;;;;;;;;;;6162870;23;20020;-94
2024/02/13 10:29:50;;;;;;;8.82;7.93;;;;;;;;;;6162699;23;20013;-92
2024/02/13 10:32:17;;;;;;;11.50;10.50;;;;;;;;;;6188536;23;20009;-94
2024/02/13 10:34:43;;;;;;;9.30;8.38;;;;;;;;;;6161498;23;20012;-91
2024/02/13 10:37:09;;;;;;;8.40;7.60;;;;;;;;;;6162166;23;20027;-94
2024/02/13 10:39:36;;;;;;;10.80;9.90;;;;;;;;;;6162061;23;20076;-94
2024/02/13 10:42:07;;;;;;;8.88;8.07;;;;;;;;;;6161935;23;20005;-95
2024/02/13 10:44:39;;;;;;;8.13;7.32;;;;;;;;;;6161684;23;20434;-92
2024/02/13 10:47:07;;;;;;;9.88;8.90;;;;;;;;;;6161980;23;20005;-94
2024/02/13 10:49:34;;;;;;;9.88;9.07;;;;;;;;;;6162313;23;20011;-93
2024/02/13 10:52:00;;;;;;;12.80;11.65;;;;;;;;;;6162080;23;20092;-95
2024/02/13 10:54:26;;;;;;;10.55;9.38;;;;;;;;;;6161297;23;20442;-95
2024/02/13 10:56:54;;;;;;;11.68;10.57;;;;;;;;;;6161482;23;20009;-95
2024/02/13 10:59:22;;;;;;;10.82;9.70;;;;;;;;;;6161630;23;20466;-90
2024/02/13 11:01:50;;;;;;;14.25;12.95;;;;;;;;;;6161456;23;20067;-89
2024/02/13 11:04:19;;;;;;;15.07;13.98;;;;;;;;;;6161391;23;20016;-93
2024/02/13 11:06:46;;;;;;;23.85;21.92;;;;;;;;;;6161616;23;20005;-94
2024/02/13 11:09:12;;;;;;;29.23;27.23;;;;;;;;;;6161545;23;20063;-93
2024/02/13 11:11:43;;;;;;;24.23;22.45;;;;;;;;;;6161155;23;20017;-95
2024/02/13 11:14:19;;;;;;;30.83;28.83;;;;;;;;;;6161249;23;20005;-94
2024/02/13 11:16:52;;;;;;;21.30;19.73;;;;;;;;;;6162904;23;20016;-95
2024/02/13 11:19:20;;;;;;;12.20;11.20;;;;;;;;;;6161488;23;20005;-95
2024/02/13 11:21:51;;;;;;;25.88;23.88;;;;;;;;;;6161852;23;20009;-92
2024/02/13 11:24:24;;;;;;;21.25;19.67;;;;;;;;;;6187683;23;20089;-93
2024/02/13 11:26:50;;;;;;;26.17;23.92;;;;;;;;;;6161581;23;20101;-94
2024/02/13 11:29:21;;;;;;;25.52;23.50;;;;;;;;;;6161831;23;20012;-94
2024/02/13 11:31:55;;;;;;;16.40;15.00;;;;;;;;;;6161162;23;20454;-95
2024/02/13 11:34:22;;;;;;;15.10;13.75;;;;;;;;;;6161594;23;20431;-93
2024/02/13 11:36:51;;;;;;;12.10;11.10;;;;;;;;;;6161078;23;20075;-95
2024/02/13 11:39:19;;;;;;;15.00;13.70;;;;;;;;;;6161200;23;20005;-93
2024/02/13 11:41:45;;;;;;;19.17;17.67;;;;;;;;;;6161174;23;20028;-94
2024/02/13 11:44:12;;;;;;;16.70;15.50;;;;;;;;;;6161882;23;20084;-94
2024/02/13 11:46:54;;;;;;;13.68;12.50;;;;;;;;;;6161894;23;20001;-93
2024/02/13 11:49:20;;;;;;;12.27;11.27;;;;;;;;;;6161786;23;20367;-93
2024/02/13 11:51:47;;;;;;;20.40;18.77;;;;;;;;;;6167048;23;19997;-90
2024/02/13 11:54:13;;;;;;;13.25;12.20;;;;;;;;;;6188308;23;19996;-92
2024/02/13 11:56:39;;;;;;;16.23;14.77;;;;;;;;;;6180180;23;20044;-92
2024/02/13 11:59:06;;;;;;;26.00;24.30;;;;;;;;;;6160841;23;20088;-94
2024/02/13 12:01:38;;;;;;;20.95;19.50;;;;;;;;;;6161070;23;20015;-94
2024/02/13 12:04:07;;;;;;;11.87;10.87;;;;;;;;;;6160696;23;20060;-93
2024/02/13 12:06:34;;;;;;;25.90;24.13;;;;;;;;;;6160924;23;20009;-93
2024/02/13 12:09:00;;;;;;;18.00;16.73;;;;;;;;;;6160801;23;20016;-95
2024/02/13 12:11:28;;;;;;;20.45;18.73;;;;;;;;;;6160706;23;20009;-94
2024/02/13 12:13:55;;;;;;;20.17;18.58;;;;;;;;;;6161207;23;20064;-94
2024/02/13 12:16:22;;;;;;;19.92;18.45;;;;;;;;;;6160531;23;20006;-93
2024/02/13 12:18:49;;;;;;;23.88;21.90;;;;;;;;;;6160918;23;20005;-94
2024/02/13 12:21:16;;;;;;;29.63;27.45;;;;;;;;;;6161061;23;20012;-95
2024/02/13 12:23:56;;;;;;;42.20;39.47;;;;;;;;;;6160884;23;20327;-95
2024/02/13 12:26:22;;;;;;;32.53;30.20;;;;;;;;;;6160396;23;20068;-93
2024/02/13 12:29:14;;;;;;;40.67;37.92;;;;;;;;;;6160776;23;20384;-95
2024/02/13 12:31:41;;;;;;;29.10;26.75;;;;;;;;;;6155026;23;20438;-94
2024/02/13 12:34:08;;;;;;;22.60;21.00;;;;;;;;;;6160986;23;20009;-92
2024/02/13 12:36:34;;;;;;;33.28;31.17;;;;;;;;;;6160467;23;20012;-93
2024/02/13 12:39:08;;;;;;;37.38;34.90;;;;;;;;;;6160395;23;20032;-94
2024/02/13 12:41:35;;;;;;;25.02;23.35;;;;;;;;;;6160947;23;20007;-94
2024/02/13 12:44:02;;;;;;;22.00;20.40;;;;;;;;;;6160475;23;20001;-90
2024/02/13 12:46:36;;;;;;;18.58;17.17;;;;;;;;;;6160619;23;20012;-92
2024/02/13 12:49:06;;;;;;;16.10;14.82;;;;;;;;;;6160747;23;20012;-93
2024/02/13 12:51:35;;;;;;;14.00;12.55;;;;;;;;;;6160238;23;20013;-92
2024/02/13 12:54:05;;;;;;;12.70;11.57;;;;;;;;;;6161257;23;20009;-94
2024/02/13 12:56:34;;;;;;;15.65;14.30;;;;;;;;;;6160400;23;20005;-93
2024/02/13 12:59:03;;;;;;;12.32;11.27;;;;;;;;;;6160583;23;20059;-94
2024/02/13 13:01:31;;;;;;;8.32;7.60;;;;;;;;;;6160719;23;20060;-94
2024/02/13 13:03:58;;;;;;;17.98;16.55;;;;;;;;;;6160424;23;20043;-91
2024/02/13 13:06:26;;;;;;;14.07;12.93;;;;;;;;;;6160567;23;20048;-94
2024/02/13 13:08:52;;;;;;;10.15;8.75;;;;;;;;;;6160792;23;20009;-94
2024/02/13 13:11:18;;;;;;;10.43;9.50;;;;;;;;;;6160839;23;20054;-94
2024/02/13 13:13:45;;;;;;;10.50;9.60;;;;;;;;;;6160856;23;20013;-90
2024/02/13 13:16:13;;;;;;;20.13;18.77;;;;;;;;;;6160676;23;20001;-91
2024/02/13 13:18:39;;;;;;;8.80;6.18;;;;;;;;;;6160535;23;20008;-92
2024/02/13 13:21:07;;;;;;;16.00;14.65;;;;;;;;;;6186598;23;20028;-91
2024/02/13 13:23:33;;;;;;;17.65;16.15;;;;;;;;;;6160419;23;20005;-92
2024/02/13 13:25:59;;;;;;;22.00;20.55;;;;;;;;;;6160882;23;20013;-93
2024/02/13 13:28:29;;;;;;;15.38;14.23;;;;;;;;;;6161759;23;20040;-92
2024/02/13 13:31:00;;;;;;;16.02;14.82;;;;;;;;;;6163198;23;20435;-93
2024/02/13 13:33:32;;;;;;;16.88;15.35;;;;;;;;;;6163177;23;20068;-89
2024/02/13 13:36:00;;;;;;;13.18;11.95;;;;;;;;;;6178371;23;20053;-91
2024/02/13 13:38:28;;;;;;;13.23;12.13;;;;;;;;;;6188147;23;20004;-90
2024/02/13 13:40:55;;;;;;;11.73;10.70;;;;;;;;;;6168813;23;20056;-93
2024/02/13 13:43:21;;;;;;;11.73;10.52;;;;;;;;;;6162336;23;20005;-95
2024/02/13 13:45:57;;;;;;;12.15;11.07;;;;;;;;;;6162133;23;20012;-93
2024/02/13 13:48:24;;;;;;;8.45;7.68;;;;;;;;;;6162578;23;20001;-91
2024/02/13 13:50:50;;;;;;;10.25;9.23;;;;;;;;;;6161789;23;20027;-93
2024/02/13 13:53:17;;;;;;;11.45;10.43;;;;;;;;;;6161747;23;20012;-93
2024/02/13 13:55:43;;;;;;;7.68;7.00;;;;;;;;;;6162053;23;20374;-93
2024/02/13 13:58:10;;;;;;;8.82;7.45;;;;;;;;;;6164204;23;20029;-93
2024/02/13 14:00:37;;;;;;;11.25;9.25;;;;;;;;;;6162396;23;20005;-93
2024/02/13 14:03:06;;;;;;;8.68;7.82;;;;;;;;;;6162607;23;20478;-92
2024/02/13 14:05:33;;;;;;;8.10;7.43;;;;;;;;;;6162075;23;20005;-93
2024/02/13 14:08:02;;;;;;;6.82;6.15;;;;;;;;;;6162187;23;20024;-93
2024/02/13 14:10:29;;;;;;;11.40;7.18;;;;;;;;;;6161758;23;20029;-92
2024/02/13 14:12:55;;;;;;;9.30;8.40;;;;;;;;;;6161812;23;20020;-92
2024/02/13 14:15:22;;;;;;;5.80;5.28;;;;;;;;;;6161625;23;20005;-92
2024/02/13 14:17:49;;;;;;;8.20;7.53;;;;;;;;;;6162714;23;20087;-92
2024/02/13 14:20:15;;;;;;;8.23;7.53;;;;;;;;;;6204164;23;20071;-92
2024/02/13 14:22:42;;;;;;;9.68;8.88;;;;;;;;;;6177188;23;20032;-94
2024/02/13 14:25:10;;;;;;;9.75;8.98;;;;;;;;;;6176912;23;19997;-92
2024/02/13 14:27:45;;;;;;;6.70;5.75;;;;;;;;;;6176188;23;20009;-94
2024/02/13 14:30:16;;;;;;;12.48;11.35;;;;;;;;;;6203955;23;20025;-93
2024/02/13 14:32:42;;;;;;;6.70;6.10;;;;;;;;;;6174799;23;19993;-94
2024/02/13 14:35:47;;;;;;;12.80;11.77;;;;;;;;;;6176878;23;20013;-92
2024/02/13 14:38:31;;;;;;;11.25;9.95;;;;;;;;;;6176746;23;20011;-92